Airfield :
LOGIN :

Register | Disclaimer

   EN    FR    IT 

 










Legend :    VFR   Marginal VFR   IFR   Intensive IFR   Very Intensive IFR
Visi :
Ceiling :
>= 8 km
>= 3000ft
5 to 8 km
1000 to 3000 ft
1500m to 5 km
500 to 1000 ft
800 to 1500m
200 to 500 ft
< 800m
< 200 ft
Symbols :   Thunderstorms  Fog  Heavy snow  Heavy precipitations  Wind > 20 kt
SIGMETs :     Misc.  Thunderstorms  Icing  Turbulence  Mountain Waves  Volcanic Ashes







- Airport Elevation : 194 ft


EBCV - Chièvres

CURRENT METAR :
  • 241555Z AUTO 11007KT 9999 SCT033/// SCT067/// BKN096/// 20/17 Q1016 BLU

EXPIRED METARs :
  • 241545Z AUTO 18004KT 7000 -RA FEW034/// BKN067/// BKN096/// 20/18 Q1016 WHT
  • 241525Z AUTO 19003KT 7000 FEW051/// BKN097/// 20/18 Q1016 WHT
  • 241519Z AUTO 19003KT 7000 FEW051/// BKN095/// 20/17 Q1016 WHT
  • 241455Z AUTO VRB02KT 9000 BKN036/// 21/17 Q1016 BLU
  • 241355Z AUTO VRB01KT 7000 -RA OVC091/// 19/17 Q1016 WHT
  • 241336Z AUTO 17003KT 4700 -RA OVC083/// 19/18 Q1017 GRN
  • 241325Z AUTO 13005KT 7000 -RA FEW048/// OVC081/// 19/17 Q1017 WHT
  • 241316Z AUTO 13004KT 7000 +RA FEW045/// BKN097/// 20/16 Q1017 WHT
  • 241255Z AUTO 08005KT 9999 FEW040/// SCT045/// BKN110/// 21/15 Q1017 BLU

TAF TAF EBCV
Valid from the 24 at 13:00 until the 24 at 22:00 UTC


241141Z 2413/2422 12006KT 9999 FEW025 BKN070
TEMPO 2413/2422 4000 SHRA SCT025TCU BKN025
TEMPO 2412/2422 16015G25KT 2000 TSRA BKN020CB
No reported NOTAMs for that airfield.
1 SIGMET reported for the Brussels FIR (EBBU) :
 
Embedded thunderstorms
EBBU SIGMET 01 VALID 241345/241800 EBBR
EBBU BRUSSELS FIR EMBD TS OBS S OF N51 TOP FL350 MOV NW 15KT INTSF=



MET'MAP, your aeronautical weather chart ! - Copyright ORBIFLY December 2007 - Disclaimer

ORBIFLY MET'MAP TEAM :

Programming & Development : Alexandra Zaïnal
Concept & Development : Baudouin d'Aumeries
Co-Development & Prog : Marc-Olivier Méhu
Technical & hardware support : Manuel Goepfert

Contact : metmap@orbifly.com




SOURCES & CREDITS :

   NOAA